createdAt,value
2023-04-09T00:01:09.130Z,101522.75
2023-04-09T00:04:11.782Z,101520.06
2023-04-09T00:07:14.168Z,101521.88
2023-04-09T00:10:16.879Z,101524.63
2023-04-09T00:13:25.461Z,101523.75
2023-04-09T00:16:38.739Z,101527.31
2023-04-09T00:19:41.072Z,101520.34
2023-04-09T00:22:43.664Z,101515.88
2023-04-09T00:25:46.190Z,101518.50
2023-04-09T00:28:48.844Z,101516.78
2023-04-09T00:31:51.372Z,101520.28
2023-04-09T00:34:54.056Z,101517.63
2023-04-09T00:37:56.437Z,101521.16
2023-04-09T00:40:59.073Z,101517.63
2023-04-09T00:44:01.467Z,101507.13
2023-04-09T00:47:05.164Z,101508.84
2023-04-09T00:50:07.923Z,101515.94
2023-04-09T00:53:11.149Z,101512.31
2023-04-09T00:56:13.993Z,101513.19
2023-04-09T00:59:16.991Z,101503.34
2023-04-09T01:02:19.338Z,101497.16
2023-04-09T01:05:22.667Z,101501.66
2023-04-09T01:08:37.432Z,101499.97
2023-04-09T01:12:02.867Z,101511.38
2023-04-09T01:15:15.040Z,101508.66
2023-04-09T01:18:20.668Z,101511.19
2023-04-09T01:21:27.713Z,101512.13
2023-04-09T01:24:36.196Z,101510.41
2023-04-09T01:28:23.008Z,101502.44
2023-04-09T01:31:31.422Z,101513.91
2023-04-09T01:34:34.234Z,101512.88
2023-04-09T01:37:37.733Z,101510.97
2023-04-09T01:40:41.142Z,101511.84
2023-04-09T01:43:44.462Z,101514.44
2023-04-09T01:46:50.593Z,101520.63
2023-04-09T01:49:54.800Z,101513.56
2023-04-09T01:52:57.396Z,101512.63
2023-04-09T01:56:00.588Z,101516.16
2023-04-09T01:59:02.927Z,101511.78
2023-04-09T02:02:13.278Z,101526.81
2023-04-09T02:05:18.780Z,101520.63
2023-04-09T02:08:22.053Z,101527.78
2023-04-09T02:11:26.392Z,101522.25
2023-04-09T02:14:29.540Z,101520.50
2023-04-09T02:17:32.050Z,101526.75
2023-04-09T02:20:34.750Z,101527.50
2023-04-09T02:23:37.232Z,101527.41
2023-04-09T02:26:40.830Z,101526.47
2023-04-09T02:29:43.757Z,101533.75
2023-04-09T02:32:48.052Z,101533.75
2023-04-09T02:35:51.081Z,101534.69
2023-04-09T02:38:55.383Z,101529.38
2023-04-09T02:41:58.192Z,101528.53
2023-04-09T02:45:02.966Z,101532.94
2023-04-09T02:48:07.765Z,101525.88
2023-04-09T02:51:11.515Z,101532.06
2023-04-09T02:54:14.230Z,101537.38
2023-04-09T02:57:16.950Z,101535.53
2023-04-09T03:00:20.055Z,101533.69
2023-04-09T03:03:23.090Z,101535.47
2023-04-09T03:06:26.794Z,101531.09
2023-04-09T03:09:31.263Z,101535.53
2023-04-09T03:12:33.609Z,101537.22
2023-04-09T03:15:36.475Z,101539.03
2023-04-09T03:18:38.864Z,101540.78
2023-04-09T03:21:41.682Z,101536.28
2023-04-09T03:24:45.984Z,101530.16
2023-04-09T03:27:48.834Z,101531.03
2023-04-09T03:30:59.061Z,101532.00
2023-04-09T03:34:02.348Z,101528.47
2023-04-09T03:37:07.343Z,101530.16
2023-04-09T03:40:10.713Z,101525.75
2023-04-09T03:43:13.250Z,101529.25
2023-04-09T03:46:23.497Z,101523.84
2023-04-09T03:49:26.607Z,101522.06
2023-04-09T03:52:32.548Z,101528.22
2023-04-09T03:55:41.872Z,101519.34
2023-04-09T03:58:54.811Z,101515.72
2023-04-09T04:02:02.792Z,101527.34
2023-04-09T04:05:09.262Z,101524.53
2023-04-09T04:08:19.634Z,101517.56
2023-04-09T04:11:23.176Z,101533.47
2023-04-09T04:14:28.840Z,101525.56
2023-04-09T04:17:41.007Z,101522.94
2023-04-09T04:20:51.454Z,101522.94
2023-04-09T04:23:54.188Z,101517.66
2023-04-09T04:27:01.138Z,101509.63
2023-04-09T04:30:10.780Z,101512.34
2023-04-09T04:33:33.064Z,101509.69
2023-04-09T04:36:37.413Z,101515.94
2023-04-09T04:39:40.683Z,101507.09
2023-04-09T04:42:47.328Z,101515.94
2023-04-09T04:45:53.476Z,101521.25
2023-04-09T04:48:59.805Z,101518.72
2023-04-09T04:52:03.392Z,101515.13
2023-04-09T04:55:07.452Z,101519.53
2023-04-09T04:58:10.583Z,101524.84
2023-04-09T05:01:20.209Z,101527.56
2023-04-09T05:04:23.840Z,101529.38
2023-04-09T05:07:26.743Z,101530.16
2023-04-09T05:10:31.800Z,101526.69
2023-04-09T05:13:35.950Z,101539.13
2023-04-09T05:16:42.537Z,101529.47
2023-04-09T05:19:53.175Z,101532.19
2023-04-09T05:23:01.510Z,101539.41
2023-04-09T05:26:08.874Z,101541.91
2023-04-09T05:29:43.582Z,101545.59
2023-04-09T05:32:46.446Z,101550.16
2023-04-09T05:35:49.795Z,101547.63
2023-04-09T05:38:52.966Z,101550.41
2023-04-09T05:41:56.593Z,101549.53
2023-04-09T05:45:08.347Z,101553.19
2023-04-09T05:48:10.831Z,101547.00
2023-04-09T05:51:15.986Z,101551.53
2023-04-09T05:54:18.758Z,101548.97
2023-04-09T05:57:21.828Z,101546.44
2023-04-09T06:00:32.121Z,101541.00
2023-04-09T06:03:35.001Z,101554.53
2023-04-09T06:06:40.936Z,101550.16
2023-04-09T06:09:47.138Z,101554.59
2023-04-09T06:12:49.518Z,101558.13
2023-04-09T06:15:52.529Z,101554.69
2023-04-09T06:18:57.089Z,101556.59
2023-04-09T06:21:59.765Z,101575.38
2023-04-09T06:25:02.295Z,101573.69
2023-04-09T06:28:05.430Z,101570.09
2023-04-09T06:31:07.888Z,101573.47
2023-04-09T06:34:11.359Z,101577.19
2023-04-09T06:37:13.717Z,101574.53
2023-04-09T06:40:16.686Z,101579.19
2023-04-09T06:43:19.220Z,101580.38
2023-04-09T06:46:26.872Z,101580.69
2023-04-09T06:49:29.365Z,101573.19
2023-04-09T06:52:32.163Z,101574.25
2023-04-09T06:55:34.630Z,101580.66
2023-04-09T06:58:37.401Z,101586.34
2023-04-09T07:01:41.087Z,101581.22
2023-04-09T07:04:44.059Z,101585.91
2023-04-09T07:07:47.611Z,101567.50
2023-04-09T07:10:50.379Z,101578.19
2023-04-09T07:13:53.467Z,101580.00
2023-04-09T07:16:56.465Z,101580.94
2023-04-09T07:19:58.887Z,101586.38
2023-04-09T07:23:01.791Z,101584.69
2023-04-09T07:26:05.060Z,101583.84
2023-04-09T07:29:10.137Z,101589.25
2023-04-09T07:32:12.690Z,101585.63
2023-04-09T07:35:15.705Z,101586.56
2023-04-09T07:38:18.084Z,101589.25
2023-04-09T07:41:21.154Z,101583.84
2023-04-09T07:44:23.734Z,101573.91
2023-04-09T07:47:27.328Z,101576.59
2023-04-09T07:50:31.186Z,101582.00
2023-04-09T07:53:33.984Z,101576.66
2023-04-09T07:56:36.476Z,101591.81
2023-04-09T07:59:39.258Z,101582.88
2023-04-09T08:02:42.271Z,101583.75
2023-04-09T08:05:45.775Z,101592.69
2023-04-09T08:08:48.237Z,101590.84
2023-04-09T08:11:50.985Z,101588.09
2023-04-09T08:14:53.288Z,101597.06
2023-04-09T08:17:56.193Z,101596.19
2023-04-09T08:20:58.593Z,101592.59
2023-04-09T08:24:04.664Z,101589.91
2023-04-09T08:27:07.104Z,101583.53
2023-04-09T08:30:10.456Z,101589.72
2023-04-09T08:33:13.587Z,101592.22
2023-04-09T08:36:16.323Z,101588.59
2023-04-09T08:39:21.066Z,101586.91
2023-04-09T08:42:25.579Z,101586.88
2023-04-09T08:45:28.121Z,101593.88
2023-04-09T08:48:31.006Z,101590.19
2023-04-09T08:51:33.522Z,101594.63
2023-04-09T08:54:36.936Z,101598.28
2023-04-09T08:57:40.003Z,101599.38
2023-04-09T09:00:42.932Z,101594.78
2023-04-09T09:03:56.984Z,101587.72
2023-04-09T09:07:07.149Z,101589.47
2023-04-09T09:10:10.092Z,101593.13
2023-04-09T09:13:26.871Z,101586.88
2023-04-09T09:16:29.694Z,101584.22
2023-04-09T09:19:33.825Z,101594.03
2023-04-09T09:22:54.993Z,101593.97
2023-04-09T09:25:58.285Z,101597.56
2023-04-09T09:29:04.330Z,101600.25
2023-04-09T09:32:13.828Z,101599.34
2023-04-09T09:35:16.326Z,101606.53
2023-04-09T09:38:19.118Z,101600.31
2023-04-09T09:41:21.668Z,101605.69
2023-04-09T09:44:32.340Z,101603.06
2023-04-09T09:47:36.783Z,101603.06
2023-04-09T09:50:43.685Z,101603.19
2023-04-09T09:53:48.391Z,101603.34
2023-04-09T09:56:52.984Z,101593.50
2023-04-09T10:00:07.862Z,101595.28
2023-04-09T10:03:23.616Z,101607.75
2023-04-09T10:06:27.765Z,101602.38
2023-04-09T10:09:32.692Z,101602.38
2023-04-09T10:12:35.212Z,101597.88
2023-04-09T10:15:38.629Z,101599.75
2023-04-09T10:18:42.942Z,101597.97
2023-04-09T10:21:56.851Z,101596.16
2023-04-09T10:25:00.181Z,101592.59
2023-04-09T10:28:03.699Z,101597.94
2023-04-09T10:31:07.829Z,101587.03
2023-04-09T10:34:11.004Z,101591.34
2023-04-09T10:37:22.222Z,101584.09
2023-04-09T10:40:25.262Z,101587.53
2023-04-09T10:43:30.602Z,101584.84
2023-04-09T10:46:37.259Z,101573.03
2023-04-09T10:49:41.644Z,101586.88
2023-04-09T10:52:44.693Z,101581.53
2023-04-09T10:55:51.550Z,101582.44
2023-04-09T10:58:54.392Z,101582.38
2023-04-09T11:01:56.903Z,101583.38
2023-04-09T11:05:23.596Z,101571.66
2023-04-09T11:08:30.203Z,101577.09
2023-04-09T11:11:34.795Z,101582.31
2023-04-09T11:14:37.131Z,101576.84
2023-04-09T11:17:39.958Z,101578.69
2023-04-09T11:20:42.357Z,101582.38
2023-04-09T11:23:52.304Z,101576.22
2023-04-09T11:26:55.273Z,101575.31
2023-04-09T11:29:58.036Z,101566.63
2023-04-09T11:33:00.869Z,101583.66
2023-04-09T11:36:06.481Z,101580.00
2023-04-09T11:39:09.034Z,101568.19
2023-04-09T11:42:15.609Z,101568.50
2023-04-09T11:45:18.976Z,101568.09
2023-04-09T11:48:23.621Z,101564.69
2023-04-09T11:51:28.409Z,101555.94
2023-04-09T11:54:34.699Z,101546.50
2023-04-09T11:57:43.218Z,101542.38
2023-04-09T12:00:46.377Z,101545.22
2023-04-09T12:03:55.702Z,101539.88
2023-04-09T12:07:01.379Z,101535.81
2023-04-09T12:10:10.337Z,101536.34
2023-04-09T12:13:13.947Z,101535.09
2023-04-09T12:16:20.794Z,101535.03
2023-04-09T12:19:26.027Z,101533.28
2023-04-09T12:22:28.359Z,101534.25
2023-04-09T12:25:32.462Z,101529.09
2023-04-09T12:28:34.906Z,101536.03
2023-04-09T12:31:37.858Z,101531.91
2023-04-09T12:34:41.252Z,101523.03
2023-04-09T12:37:44.520Z,101533.72
2023-04-09T12:40:47.132Z,101526.34
2023-04-09T12:43:49.977Z,101522.78
2023-04-09T12:46:52.449Z,101518.22
2023-04-09T12:49:55.129Z,101527.16
2023-04-09T12:52:57.406Z,101520.97
2023-04-09T12:56:00.112Z,101522.84
2023-04-09T12:59:02.578Z,101512.44
2023-04-09T13:02:05.524Z,101519.09
2023-04-09T13:05:08.590Z,101513.94
2023-04-09T13:08:11.517Z,101514.75
2023-04-09T13:11:13.899Z,101503.50
2023-04-09T13:14:16.631Z,101493.34
2023-04-09T13:17:18.991Z,101491.22
2023-04-09T13:20:21.841Z,101490.94
2023-04-09T13:23:24.233Z,101492.16
2023-04-09T13:26:27.062Z,101487.59
2023-04-09T13:29:29.664Z,101490.63
2023-04-09T13:32:32.431Z,101492.16
2023-04-09T13:35:34.964Z,101490.09
2023-04-09T13:38:37.716Z,101488.41
2023-04-09T13:41:40.717Z,101491.41
2023-04-09T13:44:45.198Z,101491.06
2023-04-09T13:47:47.600Z,101482.59
2023-04-09T13:50:50.527Z,101489.06
2023-04-09T13:53:52.965Z,101491.94
2023-04-09T13:56:55.701Z,101490.19
2023-04-09T13:59:58.094Z,101492.78
2023-04-09T14:03:01.290Z,101495.56
2023-04-09T14:06:04.085Z,101490.03
2023-04-09T14:09:06.785Z,101493.34
2023-04-09T14:12:10.209Z,101480.56
2023-04-09T14:15:12.924Z,101490.19
2023-04-09T14:18:15.614Z,101481.50
2023-04-09T14:21:18.682Z,101479.69
2023-04-09T14:24:23.346Z,101478.03
2023-04-09T14:27:26.632Z,101483.31
2023-04-09T14:30:29.222Z,101481.59
2023-04-09T14:33:32.024Z,101487.19
2023-04-09T14:36:34.484Z,101472.03
2023-04-09T14:39:37.171Z,101478.25
2023-04-09T14:42:41.407Z,101478.28
2023-04-09T14:45:44.131Z,101484.28
2023-04-09T14:48:46.818Z,101487.72
2023-04-09T14:51:49.738Z,101479.38
2023-04-09T14:54:52.284Z,101476.63
2023-04-09T14:57:55.151Z,101486.50
2023-04-09T15:00:57.867Z,101480.44
2023-04-09T15:04:00.899Z,101477.94
2023-04-09T15:07:03.404Z,101479.72
2023-04-09T15:10:06.790Z,101480.72
2023-04-09T15:13:09.207Z,101473.63
2023-04-09T15:16:20.693Z,101473.78
2023-04-09T15:19:23.299Z,101482.78
2023-04-09T15:22:26.537Z,101478.31
2023-04-09T15:25:28.926Z,101489.28
2023-04-09T15:28:31.687Z,101486.78
2023-04-09T15:31:34.700Z,101482.19
2023-04-09T15:34:37.616Z,101471.38
2023-04-09T15:37:41.978Z,101479.28
2023-04-09T15:40:44.744Z,101478.31
2023-04-09T15:43:47.158Z,101478.25
2023-04-09T15:46:50.046Z,101482.81
2023-04-09T15:49:52.539Z,101481.81
2023-04-09T15:52:56.453Z,101485.25
2023-04-09T15:55:59.194Z,101485.13
2023-04-09T15:59:02.461Z,101491.38
2023-04-09T16:02:04.945Z,101486.19
2023-04-09T16:05:08.221Z,101489.75
2023-04-09T16:08:11.908Z,101490.66
2023-04-09T16:11:15.615Z,101492.56
2023-04-09T16:14:18.077Z,101496.25
2023-04-09T16:17:21.054Z,101497.31
2023-04-09T16:20:24.006Z,101501.84
2023-04-09T16:23:29.940Z,101502.78
2023-04-09T16:26:32.960Z,101498.38
2023-04-09T16:29:35.671Z,101501.06
2023-04-09T16:32:38.133Z,101510.94
2023-04-09T16:35:41.707Z,101519.06
2023-04-09T16:38:44.292Z,101512.91
2023-04-09T16:41:49.596Z,101516.59
2023-04-09T16:44:52.025Z,101515.72
2023-04-09T16:47:54.922Z,101517.59
2023-04-09T16:50:57.384Z,101514.94
2023-04-09T16:54:00.354Z,101517.63
2023-04-09T16:57:02.897Z,101511.41
2023-04-09T17:00:07.058Z,101514.13
2023-04-09T17:03:09.534Z,101525.69
2023-04-09T17:06:12.448Z,101526.59
2023-04-09T17:09:14.955Z,101534.66
2023-04-09T17:12:18.475Z,101531.13
2023-04-09T17:15:21.739Z,101535.59
2023-04-09T17:18:24.578Z,101540.13
2023-04-09T17:21:27.581Z,101537.47
2023-04-09T17:24:30.450Z,101546.38
2023-04-09T17:27:32.917Z,101547.28
2023-04-09T17:30:35.616Z,101558.91
2023-04-09T17:33:38.811Z,101566.06
2023-04-09T17:36:42.686Z,101567.84
2023-04-09T17:39:45.109Z,101571.41
2023-04-09T17:42:49.512Z,101571.41
2023-04-09T17:45:52.002Z,101579.44
2023-04-09T17:48:54.901Z,101574.97
2023-04-09T17:51:57.870Z,101582.09
2023-04-09T17:55:00.494Z,101587.47
2023-04-09T17:58:03.602Z,101582.94
2023-04-09T18:01:08.927Z,101582.06
2023-04-09T18:04:11.852Z,101588.28
2023-04-09T18:07:15.031Z,101583.84
2023-04-09T18:10:18.578Z,101578.50
2023-04-09T18:13:21.494Z,101588.28
2023-04-09T18:16:24.101Z,101595.44
2023-04-09T18:19:26.966Z,101591.84
2023-04-09T18:22:29.424Z,101590.06
2023-04-09T18:25:32.175Z,101598.97
2023-04-09T18:28:35.409Z,101591.81
2023-04-09T18:31:38.125Z,101596.22
2023-04-09T18:34:41.261Z,101599.75
2023-04-09T18:37:44.194Z,101611.34
2023-04-09T18:40:46.857Z,101614.00
2023-04-09T18:43:50.228Z,101612.16
2023-04-09T18:46:52.757Z,101613.88
2023-04-09T18:49:55.773Z,101619.25
2023-04-09T18:52:58.137Z,101621.94
2023-04-09T18:56:01.272Z,101627.25
2023-04-09T18:59:04.204Z,101629.03
2023-04-09T19:02:07.758Z,101632.59
2023-04-09T19:05:11.866Z,101619.25
2023-04-09T19:08:15.258Z,101626.38
2023-04-09T19:11:18.073Z,101617.44
2023-04-09T19:14:22.103Z,101628.97
2023-04-09T19:17:24.862Z,101631.63
2023-04-09T19:20:31.028Z,101632.53
2023-04-09T19:23:37.078Z,101631.59
2023-04-09T19:26:40.105Z,101629.78
2023-04-09T19:29:43.104Z,101636.00
2023-04-09T19:32:46.242Z,101631.53
2023-04-09T19:35:49.519Z,101635.09
2023-04-09T19:38:52.611Z,101635.97
2023-04-09T19:41:58.217Z,101630.63
2023-04-09T19:45:02.111Z,101633.25
2023-04-09T19:48:05.693Z,101635.91
2023-04-09T19:51:08.481Z,101633.22
2023-04-09T19:54:11.079Z,101626.94
2023-04-09T19:57:15.368Z,101634.88
2023-04-09T20:00:18.045Z,101628.56
2023-04-09T20:03:21.280Z,101633.84
2023-04-09T20:06:23.929Z,101629.34
2023-04-09T20:09:29.036Z,101625.78
2023-04-09T20:12:31.742Z,101626.56
2023-04-09T20:15:34.804Z,101627.38
2023-04-09T20:18:38.351Z,101623.72
2023-04-09T20:21:41.082Z,101620.13
2023-04-09T20:24:44.039Z,101626.25
2023-04-09T20:27:46.907Z,101624.38
2023-04-09T20:30:49.563Z,101625.19
2023-04-09T20:33:53.087Z,101629.47
2023-04-09T20:36:56.101Z,101636.50
2023-04-09T20:39:59.815Z,101630.25
2023-04-09T20:43:03.063Z,101631.06
2023-04-09T20:46:07.428Z,101632.75
2023-04-09T20:49:09.975Z,101631.81
2023-04-09T20:52:13.191Z,101645.72
2023-04-09T20:55:15.773Z,101643.84
2023-04-09T20:58:18.861Z,101638.50
2023-04-09T21:01:22.292Z,101635.75
2023-04-09T21:04:25.924Z,101641.94
2023-04-09T21:07:28.391Z,101640.06
2023-04-09T21:10:31.298Z,101639.97
2023-04-09T21:13:40.400Z,101632.81
2023-04-09T21:16:49.645Z,101629.22
2023-04-09T21:19:53.418Z,101637.09
2023-04-09T21:22:56.637Z,101630.81
2023-04-09T21:25:59.154Z,101633.38
2023-04-09T21:29:02.184Z,101633.22
2023-04-09T21:32:04.700Z,101627.78
2023-04-09T21:35:07.953Z,101634.75
2023-04-09T21:38:10.448Z,101628.34
2023-04-09T21:41:13.374Z,101630.00
2023-04-09T21:44:16.034Z,101635.19
2023-04-09T21:47:19.369Z,101626.19
2023-04-09T21:50:23.340Z,101629.69
2023-04-09T21:53:27.381Z,101633.84
2023-04-09T21:56:29.842Z,101630.16
2023-04-09T21:59:32.595Z,101639.84
2023-04-09T22:02:35.092Z,101638.81
2023-04-09T22:05:38.076Z,101635.25
2023-04-09T22:08:54.948Z,101636.06
2023-04-09T22:11:59.883Z,101629.81
2023-04-09T22:15:05.059Z,101626.06
2023-04-09T22:18:07.791Z,101626.81
2023-04-09T22:21:14.283Z,101625.03
2023-04-09T22:24:18.484Z,101631.25
2023-04-09T22:27:20.905Z,101633.94
2023-04-09T22:30:24.658Z,101625.03
2023-04-09T22:33:27.224Z,101630.22
2023-04-09T22:36:29.939Z,101627.53
2023-04-09T22:39:32.415Z,101624.88
2023-04-09T22:42:35.147Z,101628.38
2023-04-09T22:45:37.909Z,101641.59
2023-04-09T22:48:44.973Z,101627.31
2023-04-09T22:51:47.606Z,101635.19
2023-04-09T22:54:50.256Z,101632.47
2023-04-09T22:57:52.767Z,101637.66
2023-04-09T23:00:55.451Z,101638.41
2023-04-09T23:03:57.840Z,101634.78
2023-04-09T23:07:00.920Z,101639.94
2023-04-09T23:10:03.354Z,101628.16
2023-04-09T23:13:06.313Z,101625.44
2023-04-09T23:16:09.951Z,101635.06
2023-04-09T23:19:12.631Z,101634.94
2023-04-09T23:22:14.932Z,101634.84
2023-04-09T23:25:17.909Z,101634.81
2023-04-09T23:28:20.399Z,101630.25
2023-04-09T23:31:23.153Z,101629.19
2023-04-09T23:34:25.730Z,101622.66
2023-04-09T23:37:28.400Z,101616.06
2023-04-09T23:40:31.049Z,101617.78
2023-04-09T23:43:33.782Z,101621.22
2023-04-09T23:46:36.706Z,101621.91
2023-04-09T23:49:41.933Z,101623.53
2023-04-09T23:52:49.517Z,101625.25
2023-04-09T23:55:52.928Z,101625.09
2023-04-09T23:58:55.258Z,101628.50
